Time;durP1;ratioP1;P1;durP2;ratioP2;P2;SDS_P1;SDS_P2;PMS_P1;PMS_P2;Temp;Humidity;BMP_temperature;BMP_pressure;BME280_temperature;BME280_humidity;BME280_pressure;Samples;Min_cycle;Max_cycle;Signal;HPM_P1;HPM_P2
2022/09/19 00:02:28;;;;;;;4.00;1.70;;;;;8.30;97068.00;;;;111074;1247;41597;-59
2022/09/19 00:04:59;;;;;;;2.50;1.50;;;;;8.30;97062.20;;;;111069;1249;41171;-59
2022/09/19 00:07:29;;;;;;;3.50;1.40;;;;;8.20;97057.00;;;;111101;1247;42294;-59
2022/09/19 00:09:58;;;;;;;3.10;1.60;;;;;8.10;97056.20;;;;111016;1248;41498;-59
2022/09/19 00:12:28;;;;;;;2.50;1.70;;;;;8.10;97058.00;;;;111085;1247;42023;-59
2022/09/19 00:14:59;;;;;;;1.50;1.40;;;;;8.00;97061.60;;;;111073;1248;41304;-59
2022/09/19 00:17:31;;;;;;;3.50;1.40;;;;;8.00;97062.20;;;;110914;1247;41150;-59
2022/09/19 00:20:01;;;;;;;2.90;1.60;;;;;7.90;97065.20;;;;110938;1248;41888;-59
2022/09/19 00:22:32;;;;;;;1.40;1.30;;;;;7.88;97068.20;;;;111010;1249;41260;-58
2022/09/19 00:25:02;;;;;;;2.50;1.40;;;;;7.80;97070.00;;;;111084;1247;41177;-58
2022/09/19 00:27:32;;;;;;;1.90;1.30;;;;;7.80;97073.60;;;;110903;1249;41152;-59
2022/09/19 00:30:03;;;;;;;2.50;1.30;;;;;7.70;97069.00;;;;110809;1247;41163;-59
2022/09/19 00:32:34;;;;;;;2.70;1.30;;;;;7.70;97068.20;;;;110885;1248;41140;-59
2022/09/19 00:35:07;;;;;;;2.30;1.30;;;;;7.70;97068.60;;;;111051;1247;41978;-59
2022/09/19 00:37:37;;;;;;;1.30;1.20;;;;;7.66;97068.00;;;;110689;1250;41249;-59
2022/09/19 00:40:08;;;;;;;2.60;1.40;;;;;7.62;97073.40;;;;110865;1249;41743;-59
2022/09/19 00:42:38;;;;;;;2.40;1.60;;;;;7.60;97073.80;;;;110974;1247;42124;-59
2022/09/19 00:45:15;;;;;;;1.50;1.40;;;;;7.60;97078.40;;;;111039;1248;41257;-60
2022/09/19 00:47:48;;;;;;;2.60;1.50;;;;;7.52;97077.40;;;;110893;1249;41130;-59
2022/09/19 00:50:27;;;;;;;2.30;1.50;;;;;7.50;97080.80;;;;111054;1249;41159;-58
2022/09/19 00:53:02;;;;;;;3.30;1.40;;;;;7.50;97075.60;;;;111096;1247;41157;-58
2022/09/19 00:55:36;;;;;;;2.30;1.40;;;;;7.46;97078.00;;;;110844;1249;41130;-58
2022/09/19 00:58:27;;;;;;;2.20;1.30;;;;;7.40;97083.80;;;;111142;1247;41587;-58
2022/09/19 01:00:58;;;;;;;2.50;1.40;;;;;7.40;97086.80;;;;110809;1250;41604;-58
2022/09/19 01:03:29;;;;;;;1.50;1.40;;;;;7.40;97094.80;;;;111195;1248;42067;-60
2022/09/19 01:06:15;;;;;;;2.60;1.50;;;;;7.40;97091.80;;;;111037;1248;42381;-59
2022/09/19 01:09:02;;;;;;;2.30;1.50;;;;;7.40;97081.60;;;;111099;1247;41727;-57
2022/09/19 01:11:43;;;;;;;3.10;1.50;;;;;7.30;97082.00;;;;110802;1249;41163;-61
2022/09/19 01:14:16;;;;;;;2.20;1.40;;;;;7.30;97082.20;;;;111092;1248;41129;-59
2022/09/19 01:16:51;;;;;;;2.40;1.30;;;;;7.30;97087.20;;;;111035;1250;41143;-60
2022/09/19 01:20:00;;;;;;;2.60;1.50;;;;;7.20;97089.20;;;;111042;1249;41267;-58
2022/09/19 01:22:43;;;;;;;1.60;1.30;;;;;7.20;97091.40;;;;111057;1247;41190;-59
2022/09/19 01:25:34;;;;;;;1.90;1.40;;;;;7.20;97099.80;;;;110984;1249;41261;-59
2022/09/19 01:28:14;;;;;;;2.00;1.40;;;;;7.20;97101.60;;;;111023;1249;41613;-58
2022/09/19 01:31:17;;;;;;;1.70;1.40;;;;;7.18;97098.20;;;;110975;1249;41273;-59
2022/09/19 01:34:01;;;;;;;3.10;1.30;;;;;7.10;97099.40;;;;110750;1250;41141;-59
2022/09/19 01:36:48;;;;;;;1.60;1.30;;;;;7.10;97094.40;;;;111086;1248;41138;-59
2022/09/19 01:39:24;;;;;;;1.40;1.30;;;;;7.10;97098.60;;;;111035;1249;41621;-59
2022/09/19 01:41:59;;;;;;;5.00;1.50;;;;;7.10;97093.80;;;;110889;1251;41128;-58
2022/09/19 01:44:32;;;;;;;1.50;1.30;;;;;7.00;97088.00;;;;111071;1249;41509;-58
2022/09/19 01:47:41;;;;;;;2.60;1.40;;;;;7.00;97097.40;;;;110871;1248;42835;-59
2022/09/19 01:50:20;;;;;;;2.70;1.50;;;;;6.96;97093.40;;;;110773;1249;42383;-59
2022/09/19 01:53:06;;;;;;;2.30;1.50;;;;;6.90;97091.20;;;;111119;1248;41783;-59
2022/09/19 01:56:28;;;;;;;4.50;1.90;;;;;6.90;97093.20;;;;109076;1249;2451553;-59
2022/09/19 01:59:25;;;;;;;2.80;1.60;;;;;6.80;97094.00;;;;111131;1249;41156;-58
2022/09/19 02:02:27;;;;;;;3.00;1.50;;;;;6.80;97103.00;;;;110995;1249;41484;-59
2022/09/19 02:05:01;;;;;;;;;;;;;6.80;97107.00;;;;110932;1250;41765;-59
2022/09/19 02:07:47;;;;;;;3.30;1.50;;;;;6.80;97101.20;;;;110934;1249;41212;-58
2022/09/19 02:10:31;;;;;;;2.00;1.50;;;;;6.80;97097.40;;;;110779;1249;41624;-59
2022/09/19 02:13:06;;;;;;;1.90;1.50;;;;;6.80;97095.00;;;;110802;1249;41154;-60
2022/09/19 02:15:50;;;;;;;2.20;1.50;;;;;6.72;97094.40;;;;110836;1249;41125;-59
2022/09/19 02:18:32;;;;;;;3.10;1.60;;;;;6.70;97095.80;;;;110844;1249;41152;-59
2022/09/19 02:21:07;;;;;;;7.00;1.50;;;;;6.70;97090.80;;;;111066;1249;41248;-59
2022/09/19 02:23:39;;;;;;;3.60;1.50;;;;;6.70;97093.80;;;;110953;1248;42543;-59
2022/09/19 02:26:09;;;;;;;1.80;1.40;;;;;6.70;97096.80;;;;110882;1249;41613;-59
2022/09/19 02:28:45;;;;;;;1.30;1.20;;;;;6.70;97099.00;;;;110991;1248;41614;-60
2022/09/19 02:31:19;;;;;;;1.90;1.40;;;;;6.70;97100.80;;;;111063;1248;41149;-59
2022/09/19 02:33:51;;;;;;;1.50;1.30;;;;;6.70;97101.40;;;;110974;1249;41375;-58
2022/09/19 02:36:32;;;;;;;1.70;1.50;;;;;6.70;97097.40;;;;110999;1249;41909;-59
2022/09/19 02:39:30;;;;;;;2.00;1.40;;;;;6.80;97095.60;;;;111015;1247;42004;-59
2022/09/19 02:42:49;;;;;;;1.40;1.30;;;;;6.80;97092.60;;;;111058;1249;41725;-58
2022/09/19 02:45:32;;;;;;;1.40;1.30;;;;;6.90;97091.20;;;;110494;1251;41147;-58
2022/09/19 02:48:12;;;;;;;1.80;1.40;;;;;7.00;97086.80;;;;110639;1249;41820;-58
2022/09/19 02:50:46;;;;;;;1.40;1.30;;;;;7.00;97083.60;;;;110655;1249;41208;-58
2022/09/19 02:53:19;;;;;;;5.20;2.00;;;;;7.10;97083.00;;;;111000;1247;41570;-59
2022/09/19 02:55:55;;;;;;;2.40;1.40;;;;;7.10;97094.60;;;;110929;1249;41313;-59
2022/09/19 02:58:27;;;;;;;2.10;1.40;;;;;7.20;97087.40;;;;110892;1249;41160;-60
2022/09/19 03:01:03;;;;;;;2.60;1.50;;;;;7.22;97092.80;;;;110699;1249;41483;-59
2022/09/19 03:06:47;;;;;;;1.80;1.50;;;;;7.30;97091.00;;;;110808;1249;41130;-58
2022/09/19 03:09:22;;;;;;;2.50;1.60;;;;;7.30;97090.40;;;;111013;1248;41903;-60
2022/09/19 03:12:18;;;;;;;5.10;1.70;;;;;7.30;97093.60;;;;111091;1248;41152;-60
2022/09/19 03:14:55;;;;;;;3.10;1.50;;;;;7.30;97083.00;;;;111088;1248;41247;-59
2022/09/19 03:17:31;;;;;;;2.20;1.50;;;;;7.28;97091.20;;;;110840;1249;41135;-59
2022/09/19 03:20:02;;;;;;;2.20;1.50;;;;;7.30;97099.20;;;;110752;1250;41592;-59
2022/09/19 03:22:41;;;;;;;14.90;2.30;;;;;7.30;97100.40;;;;110953;1248;41868;-59
2022/09/19 03:25:14;;;;;;;2.70;1.40;;;;;7.30;97100.60;;;;111171;1249;41151;-60
2022/09/19 03:27:44;;;;;;;1.50;1.40;;;;;7.32;97103.40;;;;110848;1249;41728;-63
2022/09/19 03:30:15;;;;;;;;;;;;;7.40;97101.60;;;;110958;1250;41255;-59
2022/09/19 03:32:50;;;;;;;2.40;1.50;;;;;7.40;97095.80;;;;110903;1248;41261;-60
2022/09/19 03:35:21;;;;;;;5.30;2.20;;;;;7.50;97099.60;;;;111114;1248;41691;-58
2022/09/19 03:37:52;;;;;;;3.10;1.70;;;;;7.52;97099.20;;;;110964;1249;43171;-61
2022/09/19 03:40:22;;;;;;;3.20;1.60;;;;;7.60;97096.80;;;;111066;1249;42288;-60
2022/09/19 03:42:53;;;;;;;2.70;1.50;;;;;7.60;97097.20;;;;110766;1249;41152;-60
2022/09/19 03:45:24;;;;;;;2.10;1.30;;;;;7.68;97092.60;;;;110679;1249;41132;-59
2022/09/19 03:47:54;;;;;;;1.60;1.30;;;;;7.70;97091.60;;;;110703;1250;41372;-59
2022/09/19 03:50:24;;;;;;;1.60;1.30;;;;;7.70;97088.60;;;;110976;1249;41238;-59
2022/09/19 03:53:14;;;;;;;1.40;1.30;;;;;7.80;97089.60;;;;111089;1249;41730;-58
2022/09/19 03:55:44;;;;;;;2.30;1.50;;;;;7.80;97085.40;;;;111143;1248;41140;-59
2022/09/19 03:58:16;;;;;;;2.90;1.30;;;;;7.80;97082.00;;;;111289;1249;42429;-58
2022/09/19 04:00:46;;;;;;;1.80;1.40;;;;;7.80;97085.60;;;;110739;1249;41149;-58
2022/09/19 04:03:18;;;;;;;1.20;1.10;;;;;7.80;97085.40;;;;111087;1248;41152;-58
2022/09/19 04:05:47;;;;;;;;;;;;;7.80;97084.00;;;;111090;1249;41022;-59
2022/09/19 04:08:16;;;;;;;1.40;1.20;;;;;7.80;97080.20;;;;111040;1248;41249;-59
2022/09/19 04:10:47;;;;;;;1.40;1.30;;;;;7.80;97073.60;;;;110984;1249;41145;-58
2022/09/19 04:13:20;;;;;;;2.00;1.40;;;;;7.84;97070.00;;;;111162;1249;41135;-59
2022/09/19 04:15:50;;;;;;;4.20;1.40;;;;;7.90;97072.00;;;;111306;1249;41127;-59
2022/09/19 04:18:20;;;;;;;3.90;1.90;;;;;7.90;97073.20;;;;111013;1249;41155;-59
2022/09/19 04:20:51;;;;;;;4.70;1.80;;;;;7.90;97074.80;;;;111102;1248;41347;-59
2022/09/19 04:23:42;;;;;;;1.60;1.50;;;;;7.90;97076.40;;;;110990;1249;41161;-59
2022/09/19 04:26:43;;;;;;;3.20;1.60;;;;;7.90;97070.60;;;;111053;1247;41153;-57
2022/09/19 04:29:12;;;;;;;2.10;1.50;;;;;7.90;97071.40;;;;111039;1249;41706;-60
2022/09/19 04:31:42;;;;;;;2.90;1.60;;;;;7.98;97066.40;;;;110870;1249;41146;-60
2022/09/19 04:34:14;;;;;;;4.70;1.80;;;;;8.02;97061.80;;;;111097;1248;41866;-59
2022/09/19 04:36:51;;;;;;;2.50;1.50;;;;;8.38;97054.40;;;;111066;1250;42381;-60
2022/09/19 04:39:21;;;;;;;3.20;1.60;;;;;8.76;97058.40;;;;111025;1249;41136;-59
2022/09/19 04:41:53;;;;;;;2.70;1.60;;;;;9.20;97054.40;;;;111043;1247;41163;-59
2022/09/19 04:44:26;;;;;;;3.90;1.80;;;;;9.46;97061.20;;;;111074;1249;42399;-59
2022/09/19 04:47:19;;;;;;;3.50;1.80;;;;;9.50;97071.80;;;;110839;1250;41261;-58
2022/09/19 04:49:48;;;;;;;3.00;1.60;;;;;9.50;97071.60;;;;110998;1248;41678;-59
2022/09/19 04:52:17;;;;;;;3.30;1.70;;;;;9.60;97074.60;;;;110849;1249;40721;-59
2022/09/19 04:54:48;;;;;;;1.50;1.40;;;;;10.00;97040.80;;;;111056;1249;41573;-59
2022/09/19 04:57:18;;;;;;;2.20;1.40;;;;;10.84;97069.00;;;;111076;1247;41195;-59
2022/09/19 04:59:48;;;;;;;2.90;1.50;;;;;11.10;97090.40;;;;110874;1249;42163;-59
2022/09/19 05:02:20;;;;;;;1.70;1.30;;;;;11.02;97096.20;;;;111142;1249;40734;-59
2022/09/19 05:04:51;;;;;;;2.50;1.40;;;;;10.90;97097.00;;;;111145;1248;41146;-60
2022/09/19 05:07:21;;;;;;;3.00;1.60;;;;;10.80;97100.80;;;;110963;1249;41269;-59
2022/09/19 05:09:50;;;;;;;6.10;2.00;;;;;10.60;97099.20;;;;110874;1249;41136;-59
2022/09/19 05:12:19;;;;;;;5.10;2.00;;;;;10.48;97103.40;;;;110833;1247;41248;-59
2022/09/19 05:14:51;;;;;;;5.50;2.40;;;;;10.40;97107.40;;;;110763;1250;41473;-59
2022/09/19 05:17:22;;;;;;;5.30;1.90;;;;;10.30;97107.60;;;;111102;1249;41605;-59
2022/09/19 05:19:51;;;;;;;5.40;2.30;;;;;10.22;97107.80;;;;110842;1248;41254;-59
2022/09/19 05:22:20;;;;;;;6.20;2.70;;;;;10.22;97100.60;;;;111095;1249;41141;-59
2022/09/19 05:24:49;;;;;;;6.30;2.50;;;;;10.30;97092.00;;;;110819;1248;41131;-59
2022/09/19 05:27:18;;;;;;;6.10;2.40;;;;;10.30;97095.00;;;;111190;1249;41148;-60
2022/09/19 05:29:49;;;;;;;6.80;2.20;;;;;10.30;97092.00;;;;111169;1249;41681;-60
2022/09/19 05:32:21;;;;;;;4.50;2.00;;;;;10.40;97083.80;;;;111060;1249;41157;-59
2022/09/19 05:35:11;;;;;;;3.90;1.90;;;;;10.60;97086.80;;;;111046;1247;41694;-60
2022/09/19 05:37:51;;;;;;;3.50;1.80;;;;;11.22;97067.40;;;;111130;1247;41143;-60
2022/09/19 05:40:39;;;;;;;4.40;1.80;;;;;11.94;97074.80;;;;111123;1248;41159;-60
2022/09/19 05:43:23;;;;;;;5.30;2.00;;;;;12.40;97088.40;;;;111090;1249;41878;-60
2022/09/19 05:45:53;;;;;;;4.50;2.00;;;;;12.40;97101.20;;;;110722;1249;41190;-60
2022/09/19 05:48:23;;;;;;;3.60;1.80;;;;;12.40;97111.40;;;;110892;1250;41119;-60
2022/09/19 05:50:54;;;;;;;2.70;1.50;;;;;12.28;97109.00;;;;111018;1249;41130;-59
2022/09/19 05:56:41;;;;;;;3.20;1.50;;;;;12.00;97110.60;;;;111060;1249;41379;-59
2022/09/19 05:59:11;;;;;;;2.90;1.40;;;;;11.90;97112.20;;;;111020;1247;41793;-59
2022/09/19 06:01:43;;;;;;;2.70;1.60;;;;;11.86;97112.40;;;;111067;1248;41144;-60
2022/09/19 06:04:25;;;;;;;2.70;1.50;;;;;11.80;97112.40;;;;111120;1248;41173;-58
2022/09/19 06:06:56;;;;;;;5.10;2.10;;;;;11.70;97118.80;;;;110995;1249;41158;-59
2022/09/19 06:09:33;;;;;;;3.70;1.80;;;;;11.74;97108.80;;;;111047;1248;41216;-60
2022/09/19 06:12:07;;;;;;;3.80;1.70;;;;;11.90;97107.00;;;;111046;1249;41945;-59
2022/09/19 06:14:38;;;;;;;3.70;1.70;;;;;12.32;97106.40;;;;111074;1250;41686;-59
2022/09/19 06:17:11;;;;;;;3.00;1.70;;;;;12.80;97111.00;;;;111013;1248;41154;-58
2022/09/19 06:19:55;;;;;;;4.20;1.80;;;;;13.10;97104.80;;;;111069;1249;41139;-59
2022/09/19 06:22:29;;;;;;;6.40;2.10;;;;;13.16;97103.00;;;;110823;1249;42426;-61
2022/09/19 06:25:15;;;;;;;6.90;2.30;;;;;13.20;97109.80;;;;110745;1248;41146;-61
2022/09/19 06:27:58;;;;;;;6.00;2.20;;;;;13.10;97116.00;;;;110960;1250;41776;-60
2022/09/19 06:30:27;;;;;;;5.50;2.20;;;;;13.00;97123.60;;;;111106;1249;41392;-59
2022/09/19 06:33:13;;;;;;;5.20;2.10;;;;;12.90;97116.80;;;;110812;1250;41150;-59
2022/09/19 06:35:50;;;;;;;4.00;1.80;;;;;12.90;97110.60;;;;111095;1249;41774;-59
2022/09/19 06:38:19;;;;;;;5.20;1.70;;;;;13.12;97103.60;;;;110971;1250;41174;-59
2022/09/19 06:40:49;;;;;;;4.10;1.70;;;;;13.40;97105.60;;;;110964;1250;41905;-60
2022/09/19 06:43:39;;;;;;;2.60;1.60;;;;;13.60;97103.40;;;;110881;1249;41202;-61
2022/09/19 06:46:32;;;;;;;3.30;1.50;;;;;13.80;97102.00;;;;111072;1247;41716;-60
2022/09/19 06:49:20;;;;;;;2.50;1.40;;;;;14.20;97101.80;;;;111131;1249;41261;-59
2022/09/19 06:51:57;;;;;;;3.20;1.60;;;;;14.50;97103.40;;;;111046;1249;42264;-59
2022/09/19 06:54:25;;;;;;;4.20;1.70;;;;;14.50;97102.40;;;;111093;1247;41267;-59
2022/09/19 06:56:54;;;;;;;3.40;1.50;;;;;14.52;97090.00;;;;110903;1249;41154;-60
2022/09/19 06:59:23;;;;;;;2.00;1.30;;;;;15.34;97084.20;;;;111040;1249;41164;-60
2022/09/19 07:01:53;;;;;;;1.70;1.30;;;;;16.44;97079.00;;;;111092;1248;41986;-60
2022/09/19 07:04:23;;;;;;;3.50;1.40;;;;;17.56;97082.20;;;;110912;1250;41169;-60
2022/09/19 07:07:05;;;;;;;3.00;1.30;;;;;18.38;97084.20;;;;111056;1249;41198;-60
2022/09/19 07:09:37;;;;;;;2.00;1.20;;;;;18.50;97088.80;;;;110733;1250;41150;-60
2022/09/19 07:12:09;;;;;;;2.00;1.20;;;;;19.40;97093.40;;;;111037;1249;41492;-60
2022/09/19 07:14:38;;;;;;;1.40;1.20;;;;;20.14;97089.40;;;;111017;1249;41137;-59
2022/09/19 07:17:07;;;;;;;2.60;1.40;;;;;20.20;97091.40;;;;111128;1247;41150;-60
2022/09/19 07:19:36;;;;;;;2.10;1.30;;;;;20.62;97101.40;;;;110646;1250;41148;-60
2022/09/19 07:22:23;;;;;;;2.40;1.30;;;;;21.30;97103.20;;;;110965;1249;41963;-60
2022/09/19 07:25:22;;;;;;;2.10;1.30;;;;;21.50;97086.40;;;;110475;1250;41144;-59
2022/09/19 07:27:55;;;;;;;3.30;1.30;;;;;20.82;97092.20;;;;111068;1249;40909;-60
2022/09/19 07:30:26;;;;;;;3.00;1.20;;;;;21.42;97096.40;;;;110914;1249;42419;-60
2022/09/19 07:32:58;;;;;;;1.80;1.20;;;;;21.86;97091.00;;;;111027;1249;41258;-60
2022/09/19 07:35:32;;;;;;;3.00;1.10;;;;;21.90;97087.20;;;;110873;1249;41131;-60
2022/09/19 07:38:06;;;;;;;3.70;1.30;;;;;21.10;97090.80;;;;111029;1249;41609;-60
2022/09/19 07:40:54;;;;;;;1.60;1.20;;;;;21.86;97086.40;;;;110923;1249;41522;-59
2022/09/19 07:43:33;;;;;;;2.10;1.20;;;;;22.24;97082.60;;;;110836;1250;41334;-60
2022/09/19 07:46:15;;;;;;;2.30;1.30;;;;;22.48;97080.60;;;;110987;1249;41252;-61
2022/09/19 07:48:56;;;;;;;2.10;1.30;;;;;23.62;97079.00;;;;110934;1249;42470;-60
2022/09/19 07:51:55;;;;;;;1.90;1.20;;;;;24.34;97063.80;;;;110954;1249;41146;-60
2022/09/19 07:54:23;;;;;;;1.60;1.10;;;;;23.88;97084.40;;;;111005;1249;42044;-60
2022/09/19 07:56:52;;;;;;;1.10;1.00;;;;;23.76;97085.20;;;;111002;1247;42369;-61
2022/09/19 07:59:21;;;;;;;1.40;1.00;;;;;23.34;97080.00;;;;111250;1249;41275;-59
2022/09/19 08:02:01;;;;;;;1.40;1.10;;;;;22.24;97073.60;;;;111005;1249;41204;-59
2022/09/19 08:04:34;;;;;;;1.10;0.90;;;;;21.06;97088.20;;;;110996;1249;42043;-59
2022/09/19 08:07:04;;;;;;;1.40;1.10;;;;;19.44;97096.40;;;;110880;1249;41189;-60
2022/09/19 08:09:33;;;;;;;1.60;1.20;;;;;18.92;97077.20;;;;110939;1249;41298;-60
2022/09/19 08:12:19;;;;;;;3.00;1.20;;;;;18.64;97103.00;;;;110890;1249;41697;-60
2022/09/19 08:14:56;;;;;;;2.80;1.30;;;;;18.20;97103.60;;;;111061;1249;41128;-60
2022/09/19 08:17:25;;;;;;;1.50;1.10;;;;;17.46;97108.20;;;;111066;1248;41156;-60
2022/09/19 08:19:55;;;;;;;2.00;1.20;;;;;17.10;97104.60;;;;110960;1249;41153;-60
2022/09/19 08:22:24;;;;;;;1.60;1.20;;;;;16.50;97109.20;;;;110883;1250;41947;-60
2022/09/19 08:25:01;;;;;;;1.70;1.20;;;;;16.26;97110.60;;;;110996;1249;41169;-60
2022/09/19 08:27:30;;;;;;;1.90;1.30;;;;;16.34;97110.60;;;;110968;1249;43026;-60
2022/09/19 08:29:59;;;;;;;3.30;1.10;;;;;16.50;97113.80;;;;110897;1250;41146;-60
2022/09/19 08:32:28;;;;;;;2.20;1.30;;;;;16.30;97116.80;;;;110731;1251;41563;-60
2022/09/19 08:34:58;;;;;;;1.80;1.20;;;;;16.32;97110.20;;;;111079;1249;41252;-60
2022/09/19 08:37:27;;;;;;;2.30;1.40;;;;;16.66;97110.40;;;;111147;1249;41149;-59
2022/09/19 08:42:52;;;;;;;3.00;1.30;;;;;17.36;97103.00;;;;110872;1248;41712;-60
2022/09/19 08:46:03;;;;;;;2.30;1.20;;;;;17.40;97102.20;;;;110959;1249;41143;-60
2022/09/19 08:48:49;;;;;;;3.80;1.60;;;;;17.60;97103.20;;;;110984;1249;41575;-60
2022/09/19 08:51:44;;;;;;;4.10;1.50;;;;;17.80;97104.40;;;;110960;1249;41844;-60
2022/09/19 08:54:18;;;;;;;3.80;1.40;;;;;18.00;97093.40;;;;110809;1250;41136;-61
2022/09/19 08:56:48;;;;;;;1.90;1.20;;;;;18.20;97093.60;;;;111076;1248;41603;-61
2022/09/19 08:59:20;;;;;;;1.60;1.10;;;;;18.20;97085.80;;;;111314;1248;41185;-63
2022/09/19 09:01:57;;;;;;;1.90;1.20;;;;;18.30;97088.20;;;;110869;1249;41855;-60
2022/09/19 09:05:00;;;;;;;2.50;1.20;;;;;18.14;97090.20;;;;110982;1249;41637;-60
2022/09/19 09:07:52;;;;;;;1.00;0.90;;;;;17.90;97089.20;;;;110935;1249;41934;-62
2022/09/19 09:11:05;;;;;;;0.90;0.90;;;;;17.62;97089.40;;;;111080;1249;41249;-60
2022/09/19 09:13:55;;;;;;;1.00;0.90;;;;;17.18;97089.00;;;;111093;1248;41152;-61
2022/09/19 09:16:31;;;;;;;0.80;0.80;;;;;16.96;97097.60;;;;111128;1248;40967;-63
2022/09/19 09:19:17;;;;;;;0.80;0.80;;;;;16.80;97099.20;;;;110960;1249;41143;-60
2022/09/19 09:22:01;;;;;;;1.10;0.90;;;;;16.62;97098.60;;;;111006;1247;41139;-60
2022/09/19 09:24:39;;;;;;;0.90;0.90;;;;;16.40;97100.00;;;;111029;1249;41256;-60
2022/09/19 09:27:38;;;;;;;2.30;1.10;;;;;16.38;97104.40;;;;111074;1249;42548;-61
2022/09/19 09:30:16;;;;;;;1.00;0.90;;;;;16.30;97109.00;;;;111062;1249;41183;-59
2022/09/19 09:33:23;;;;;;;2.20;1.20;;;;;16.30;97108.40;;;;111049;1249;41753;-59
2022/09/19 09:36:15;;;;;;;4.00;1.00;;;;;16.50;97109.80;;;;111025;1249;41261;-60
2022/09/19 09:39:11;;;;;;;1.60;1.00;;;;;16.60;97111.60;;;;110830;1249;41951;-60
2022/09/19 09:41:49;;;;;;;1.40;1.00;;;;;16.90;97112.40;;;;110976;1250;42300;-60
2022/09/19 09:44:52;;;;;;;1.60;1.10;;;;;17.00;97106.00;;;;111108;1251;41891;-59
2022/09/19 09:47:32;;;;;;;0.80;0.80;;;;;16.90;97109.40;;;;111024;1250;41642;-60
2022/09/19 09:50:18;;;;;;;1.30;1.00;;;;;17.00;97108.80;;;;110995;1250;41660;-60
2022/09/19 09:52:55;;;;;;;1.80;1.20;;;;;17.26;97105.40;;;;111067;1249;41152;-60
2022/09/19 09:58:38;;;;;;;0.90;0.90;;;;;16.80;97104.00;;;;110981;1247;42259;-60
2022/09/19 10:04:24;;;;;;;1.00;1.00;;;;;16.60;97104.60;;;;111029;1249;41145;-60
2022/09/19 10:07:24;;;;;;;0.90;0.90;;;;;16.70;97109.40;;;;111090;1247;41577;-60
2022/09/19 10:09:57;;;;;;;2.00;1.00;;;;;16.90;97106.60;;;;111073;1250;41172;-60
2022/09/19 10:12:40;;;;;;;1.00;0.90;;;;;17.10;97101.00;;;;111043;1249;41167;-60
2022/09/19 10:15:18;;;;;;;2.10;1.50;;;;;17.38;97094.40;;;;110946;1249;41632;-61
2022/09/19 10:17:55;;;;;;;2.00;1.00;;;;;17.70;97089.80;;;;110865;1249;41158;-60
2022/09/19 10:20:32;;;;;;;1.30;0.90;;;;;18.36;97085.40;;;;111178;1250;41134;-60
2022/09/19 10:23:01;;;;;;;1.10;0.80;;;;;18.84;97079.80;;;;111104;1249;41451;-60
2022/09/19 10:25:30;;;;;;;1.10;1.00;;;;;19.00;97076.60;;;;110901;1251;41188;-60
2022/09/19 10:28:17;;;;;;;1.40;1.00;;;;;18.84;97077.60;;;;111028;1250;41357;-61
2022/09/19 10:31:06;;;;;;;1.60;1.10;;;;;18.42;97084.80;;;;110961;1250;41176;-61
2022/09/19 10:33:43;;;;;;;1.60;1.00;;;;;18.12;97082.80;;;;110960;1250;41172;-61
2022/09/19 10:36:20;;;;;;;1.50;1.00;;;;;17.90;97088.00;;;;110981;1250;41149;-61
2022/09/19 10:38:58;;;;;;;1.20;1.00;;;;;17.90;97089.00;;;;110979;1249;41177;-60
2022/09/19 10:41:30;;;;;;;2.00;0.90;;;;;17.70;97084.00;;;;110976;1250;41263;-60
2022/09/19 10:44:08;;;;;;;1.00;1.00;;;;;17.70;97084.60;;;;110960;1251;41619;-61
2022/09/19 10:46:54;;;;;;;1.80;1.10;;;;;17.50;97084.60;;;;111063;1250;41159;-61
2022/09/19 10:49:37;;;;;;;1.20;1.00;;;;;17.46;97084.40;;;;110956;1250;41273;-60
2022/09/19 10:52:07;;;;;;;1.80;1.10;;;;;17.40;97089.40;;;;111105;1248;41141;-60
2022/09/19 10:54:40;;;;;;;1.00;1.00;;;;;17.34;97090.80;;;;111004;1250;41161;-59
2022/09/19 10:57:33;;;;;;;0.90;0.90;;;;;17.30;97088.40;;;;111008;1249;41152;-60
2022/09/19 11:00:03;;;;;;;1.10;1.00;;;;;17.40;97091.80;;;;111342;1249;41163;-60
2022/09/19 11:02:35;;;;;;;1.00;1.00;;;;;17.58;97094.20;;;;110941;1250;41949;-60
2022/09/19 11:05:04;;;;;;;3.90;1.20;;;;;17.44;97091.60;;;;110802;1250;41298;-61
2022/09/19 11:07:48;;;;;;;1.40;1.00;;;;;17.20;97092.40;;;;110998;1248;41196;-61
2022/09/19 11:10:32;;;;;;;1.00;0.90;;;;;17.18;97093.00;;;;111053;1250;41260;-61
2022/09/19 11:13:07;;;;;;;0.90;0.90;;;;;16.90;97093.80;;;;111014;1250;41156;-62
2022/09/19 11:15:49;;;;;;;1.40;1.10;;;;;16.62;97094.00;;;;111010;1250;41252;-60
2022/09/19 11:18:33;;;;;;;1.60;1.00;;;;;16.38;97095.60;;;;111023;1250;41142;-59
2022/09/19 11:21:29;;;;;;;1.10;1.10;;;;;16.20;97094.20;;;;111017;1250;42369;-59
2022/09/19 11:24:05;;;;;;;1.20;1.10;;;;;16.10;97101.00;;;;110905;1250;42520;-59
2022/09/19 11:27:07;;;;;;;1.60;1.20;;;;;16.10;97102.20;;;;110995;1249;41906;-60
2022/09/19 11:30:02;;;;;;;1.80;1.10;;;;;16.10;97097.00;;;;110841;1250;42048;-61
2022/09/19 11:32:57;;;;;;;1.10;1.00;;;;;16.10;97097.60;;;;110925;1251;41465;-60
2022/09/19 11:36:07;;;;;;;1.80;1.20;;;;;15.86;97099.40;;;;110637;1250;41277;-60
2022/09/19 11:39:03;;;;;;;1.20;1.10;;;;;15.70;97102.20;;;;110969;1250;41310;-61
2022/09/19 11:42:00;;;;;;;1.40;1.20;;;;;15.40;97102.40;;;;110869;1249;41256;-61
2022/09/19 11:44:40;;;;;;;1.20;1.10;;;;;15.22;97105.80;;;;111020;1250;41633;-60
2022/09/19 11:47:25;;;;;;;1.70;1.10;;;;;15.14;97103.00;;;;111032;1250;41446;-60
2022/09/19 11:50:18;;;;;;;3.50;1.20;;;;;15.00;97105.40;;;;110951;1249;41151;-60
2022/09/19 11:53:07;;;;;;;3.00;1.20;;;;;15.00;97102.60;;;;110737;1248;41173;-60
2022/09/19 11:56:36;;;;;;;3.00;1.30;;;;;15.12;97106.60;;;;110853;1250;41845;-61
2022/09/19 11:59:07;;;;;;;3.20;1.10;;;;;15.10;97100.40;;;;110530;1256;41158;-60
2022/09/19 12:01:37;;;;;;;1.00;1.00;;;;;15.04;97107.00;;;;110390;1256;41156;-60
2022/09/19 12:04:25;;;;;;;1.10;1.00;;;;;15.10;97111.80;;;;110646;1252;41291;-60
2022/09/19 12:07:10;;;;;;;1.20;1.10;;;;;15.18;97108.00;;;;110618;1251;41191;-60
2022/09/19 12:09:55;;;;;;;1.20;1.10;;;;;15.10;97111.40;;;;110801;1251;41156;-58
2022/09/19 12:12:26;;;;;;;1.40;1.10;;;;;15.08;97115.00;;;;110710;1252;41485;-62
2022/09/19 12:15:28;;;;;;;1.00;1.00;;;;;15.04;97117.60;;;;110782;1251;41150;-60
2022/09/19 12:18:10;;;;;;;1.30;1.00;;;;;15.00;97118.80;;;;110734;1252;41147;-60
2022/09/19 12:20:47;;;;;;;2.00;1.30;;;;;15.08;97121.20;;;;110799;1251;41266;-60
2022/09/19 12:26:49;;;;;;;1.20;1.10;;;;;15.20;97122.00;;;;110739;1251;41217;-59
2022/09/19 12:29:33;;;;;;;1.20;1.10;;;;;15.36;97117.60;;;;110812;1250;41167;-59
2022/09/19 12:32:17;;;;;;;1.50;1.20;;;;;15.60;97112.60;;;;110793;1251;41144;-60
2022/09/19 12:35:12;;;;;;;1.10;1.00;;;;;15.70;97107.80;;;;110800;1252;41753;-61
2022/09/19 12:37:56;;;;;;;1.10;1.00;;;;;15.90;97107.00;;;;110749;1252;41391;-61
2022/09/19 12:40:32;;;;;;;3.00;1.20;;;;;16.00;97103.40;;;;110837;1251;41261;-61
2022/09/19 12:43:41;;;;;;;2.50;1.00;;;;;16.00;97101.40;;;;110830;1251;41531;-60
2022/09/19 12:46:38;;;;;;;1.50;1.10;;;;;16.00;97100.60;;;;110855;1251;41141;-61
2022/09/19 12:49:27;;;;;;;1.40;1.10;;;;;15.80;97101.40;;;;110628;1252;41315;-60
2022/09/19 12:52:17;;;;;;;1.60;1.30;;;;;15.70;97099.80;;;;110771;1251;41134;-60
2022/09/19 12:55:04;;;;;;;1.70;1.30;;;;;15.60;97097.40;;;;110793;1251;41630;-59
2022/09/19 12:57:46;;;;;;;2.40;1.20;;;;;15.68;97096.00;;;;110750;1251;41142;-60
2022/09/19 13:00:14;;;;;;;2.40;1.20;;;;;15.70;97097.00;;;;110990;1248;41147;-59
2022/09/19 13:02:46;;;;;;;1.90;1.30;;;;;15.60;97094.40;;;;111082;1250;41995;-60
2022/09/19 13:05:42;;;;;;;1.60;1.20;;;;;15.56;97096.80;;;;111148;1250;41165;-59
2022/09/19 13:08:20;;;;;;;1.20;1.00;;;;;15.48;97100.40;;;;110899;1249;42348;-60
2022/09/19 13:11:16;;;;;;;1.10;0.90;;;;;15.40;97103.80;;;;111023;1250;41166;-60
2022/09/19 13:13:53;;;;;;;1.40;1.20;;;;;15.40;97088.60;;;;110758;1250;41197;-61
2022/09/19 13:16:29;;;;;;;3.50;1.40;;;;;15.50;97079.60;;;;111015;1249;41249;-61
2022/09/19 13:24:50;;;;;;;1.10;1.00;;;;;15.70;97089.60;;;;111070;1250;41203;-60
2022/09/19 13:27:20;;;;;;;1.40;1.00;;;;;15.72;97105.60;;;;111037;1248;41249;-59
2022/09/19 13:29:51;;;;;;;;;;;;;15.80;97105.20;;;;111140;1247;41143;-59
2022/09/19 13:32:27;;;;;;;1.70;1.10;;;;;15.90;97106.00;;;;111128;1248;41166;-61
2022/09/19 13:35:12;;;;;;;1.00;1.00;;;;;16.00;97108.60;;;;111043;1248;41946;-60
2022/09/19 13:37:43;;;;;;;1.00;1.00;;;;;15.90;97110.60;;;;110924;1249;42017;-60